createdAt,value
2022-08-20T00:01:08.951Z,16.64
2022-08-20T00:03:39.162Z,16.59
2022-08-20T00:06:10.461Z,16.59
2022-08-20T00:08:39.054Z,16.48
2022-08-20T00:11:11.184Z,16.44
2022-08-20T00:13:42.251Z,16.33
2022-08-20T00:16:10.922Z,16.26
2022-08-20T00:18:39.333Z,16.22
2022-08-20T00:21:09.222Z,16.17
2022-08-20T00:23:41.601Z,16.08
2022-08-20T00:26:12.519Z,16.05
2022-08-20T00:28:41.433Z,16.06
2022-08-20T00:31:34.269Z,15.98
2022-08-20T00:34:02.552Z,15.99
2022-08-20T00:36:32.673Z,15.89
2022-08-20T00:39:01.830Z,15.86
2022-08-20T00:41:32.359Z,15.87
2022-08-20T00:44:13.478Z,15.85
2022-08-20T00:46:43.036Z,15.90
2022-08-20T00:49:16.769Z,15.93
2022-08-20T00:51:47.469Z,15.98
2022-08-20T00:54:18.059Z,15.92
2022-08-20T00:56:51.289Z,15.96
2022-08-20T00:59:23.390Z,15.96
2022-08-20T01:01:55.107Z,15.95
2022-08-20T01:04:26.509Z,15.97
2022-08-20T01:06:55.262Z,15.98
2022-08-20T01:09:50.348Z,15.96
2022-08-20T01:12:20.197Z,15.99
2022-08-20T01:14:48.960Z,15.98
2022-08-20T01:17:22.422Z,15.99
2022-08-20T01:19:53.193Z,15.99
2022-08-20T01:22:44.279Z,16.00
2022-08-20T01:25:17.300Z,16.00
2022-08-20T01:27:55.156Z,15.98
2022-08-20T01:30:26.553Z,16.06
2022-08-20T01:32:54.680Z,16.05
2022-08-20T01:35:25.926Z,16.10
2022-08-20T01:37:54.561Z,16.09
2022-08-20T01:40:34.330Z,16.06
2022-08-20T01:43:09.739Z,15.98
2022-08-20T01:45:40.056Z,15.95
2022-08-20T01:48:08.491Z,15.94
2022-08-20T01:50:42.090Z,15.96
2022-08-20T01:53:19.211Z,15.96
2022-08-20T01:55:47.732Z,15.91
2022-08-20T01:58:17.282Z,15.96
2022-08-20T02:00:45.501Z,15.93
2022-08-20T02:03:13.562Z,15.94
2022-08-20T02:05:41.731Z,15.90
2022-08-20T02:08:09.891Z,15.90
2022-08-20T02:10:38.089Z,15.84
2022-08-20T02:13:08.892Z,15.88
2022-08-20T02:15:39.739Z,15.88
2022-08-20T02:18:11.032Z,15.89
2022-08-20T02:20:39.786Z,15.82
2022-08-20T02:23:08.284Z,15.84
2022-08-20T02:25:38.463Z,15.84
2022-08-20T02:28:09.305Z,15.88
2022-08-20T02:30:41.532Z,15.83
2022-08-20T02:33:12.349Z,15.86
2022-08-20T02:35:42.965Z,15.90
2022-08-20T02:38:11.661Z,15.93
2022-08-20T02:40:40.209Z,15.95
2022-08-20T02:43:08.351Z,16.00
2022-08-20T02:45:37.489Z,15.97
2022-08-20T02:48:07.282Z,16.04
2022-08-20T02:50:35.602Z,15.97
2022-08-20T02:53:03.729Z,15.97
2022-08-20T02:55:31.884Z,15.99
2022-08-20T02:58:01.341Z,15.97
2022-08-20T03:00:38.057Z,15.97
2022-08-20T03:03:09.314Z,15.99
2022-08-20T03:05:39.794Z,16.01
2022-08-20T03:08:09.176Z,16.07
2022-08-20T03:10:39.230Z,16.03
2022-08-20T03:13:11.391Z,16.06
2022-08-20T03:15:41.012Z,16.06
2022-08-20T03:18:10.933Z,16.09
2022-08-20T03:20:39.292Z,16.09
2022-08-20T03:23:08.103Z,16.00
2022-08-20T03:25:36.522Z,16.08
2022-08-20T03:28:05.363Z,16.11
2022-08-20T03:30:33.692Z,16.16
2022-08-20T03:33:01.841Z,16.13
2022-08-20T03:35:33.629Z,16.09
2022-08-20T03:38:01.841Z,16.05
2022-08-20T03:40:32.863Z,16.06
2022-08-20T03:43:01.065Z,16.22
2022-08-20T03:45:30.085Z,16.22
2022-08-20T03:47:58.939Z,16.24
2022-08-20T03:50:29.752Z,16.18
2022-08-20T03:53:00.232Z,16.15
2022-08-20T03:55:30.559Z,16.04
2022-08-20T03:58:02.952Z,16.14
2022-08-20T04:00:37.624Z,16.28
2022-08-20T04:03:08.483Z,16.20
2022-08-20T04:05:40.869Z,16.25
2022-08-20T04:08:12.004Z,16.23
2022-08-20T04:10:40.712Z,16.21
2022-08-20T04:13:09.602Z,16.29
2022-08-20T04:15:38.545Z,16.22
2022-08-20T04:18:09.132Z,16.27
2022-08-20T04:20:38.970Z,16.17
2022-08-20T04:23:08.242Z,16.16
2022-08-20T04:25:42.575Z,16.23
2022-08-20T04:28:15.261Z,16.21
2022-08-20T04:30:51.608Z,16.19
2022-08-20T04:33:22.655Z,16.17
2022-08-20T04:36:03.082Z,16.14
2022-08-20T04:38:50.540Z,16.13
2022-08-20T04:41:23.731Z,16.23
2022-08-20T04:43:54.311Z,16.18
2022-08-20T04:46:26.058Z,16.18
2022-08-20T04:48:54.494Z,16.19
2022-08-20T04:51:23.541Z,16.15
2022-08-20T04:53:54.387Z,16.13
2022-08-20T04:56:26.161Z,16.20
2022-08-20T04:58:55.873Z,16.04
2022-08-20T05:01:25.556Z,16.09
2022-08-20T05:03:55.441Z,16.18
2022-08-20T05:06:26.105Z,15.97
2022-08-20T05:08:54.387Z,16.15
2022-08-20T05:11:34.973Z,16.19
2022-08-20T05:14:06.215Z,16.42
2022-08-20T05:16:39.209Z,16.49
2022-08-20T05:19:09.022Z,16.46
2022-08-20T05:21:37.654Z,16.56
2022-08-20T05:24:06.849Z,16.47
2022-08-20T05:26:36.395Z,16.61
2022-08-20T05:29:06.471Z,16.75
2022-08-20T05:31:35.384Z,16.86
2022-08-20T05:34:03.842Z,16.89
2022-08-20T05:36:31.992Z,16.93
2022-08-20T05:39:00.249Z,16.89
2022-08-20T05:41:30.426Z,16.92
2022-08-20T05:44:01.993Z,16.99
2022-08-20T05:46:31.515Z,17.02
2022-08-20T05:49:02.076Z,17.04
2022-08-20T05:51:30.622Z,17.17
2022-08-20T05:53:59.414Z,17.32
2022-08-20T05:56:30.841Z,17.40
2022-08-20T05:59:03.835Z,17.43
2022-08-20T06:01:32.685Z,17.50
2022-08-20T06:04:18.331Z,17.50
2022-08-20T06:06:47.408Z,17.44
2022-08-20T06:09:31.959Z,17.45
2022-08-20T06:12:02.511Z,17.43
2022-08-20T06:14:32.491Z,17.54
2022-08-20T06:17:07.570Z,17.59
2022-08-20T06:19:35.971Z,17.65
2022-08-20T06:22:17.634Z,17.47
2022-08-20T06:24:49.544Z,17.66
2022-08-20T06:27:20.323Z,17.87
2022-08-20T06:29:50.614Z,17.90
2022-08-20T06:32:31.757Z,17.87
2022-08-20T06:35:03.711Z,17.98
2022-08-20T06:37:33.152Z,17.89
2022-08-20T06:40:02.878Z,18.03
2022-08-20T06:42:31.113Z,18.16
2022-08-20T06:45:00.644Z,18.22
2022-08-20T06:47:28.760Z,18.28
2022-08-20T06:49:56.913Z,18.25
2022-08-20T06:52:35.057Z,18.14
2022-08-20T06:55:13.522Z,17.95
2022-08-20T06:57:41.992Z,18.19
2022-08-20T07:00:14.472Z,18.23
2022-08-20T07:02:42.712Z,18.06
2022-08-20T07:05:11.802Z,18.22
2022-08-20T07:07:39.952Z,18.15
2022-08-20T07:10:09.772Z,18.12
2022-08-20T07:12:37.875Z,18.36
2022-08-20T07:15:07.400Z,18.33
2022-08-20T07:17:37.062Z,18.23
2022-08-20T07:20:06.124Z,18.38
2022-08-20T07:22:35.683Z,18.48
2022-08-20T07:25:04.354Z,18.56
2022-08-20T07:27:32.612Z,18.63
2022-08-20T07:30:18.171Z,18.52
2022-08-20T07:32:49.764Z,18.51
2022-08-20T07:35:20.395Z,18.55
2022-08-20T07:37:50.182Z,18.57
2022-08-20T07:40:25.358Z,18.61
2022-08-20T07:42:54.838Z,18.56
2022-08-20T07:45:24.053Z,18.64
2022-08-20T07:47:54.382Z,18.67
2022-08-20T07:50:25.842Z,18.72
2022-08-20T07:52:54.273Z,18.86
2022-08-20T07:55:22.745Z,18.87
2022-08-20T07:57:51.802Z,18.98
2022-08-20T08:00:21.860Z,18.62
2022-08-20T08:02:50.002Z,18.67
2022-08-20T08:05:19.882Z,18.70
2022-08-20T08:07:48.031Z,18.71
2022-08-20T08:10:19.683Z,18.65
2022-08-20T08:12:50.241Z,18.93
2022-08-20T08:15:21.632Z,19.21
2022-08-20T08:17:51.051Z,19.26
2022-08-20T08:20:22.778Z,19.35
2022-08-20T08:22:51.116Z,19.53
2022-08-20T08:25:19.657Z,19.57
2022-08-20T08:27:49.231Z,19.59
2022-08-20T08:30:18.589Z,19.56
2022-08-20T08:33:04.462Z,19.46
2022-08-20T08:35:34.363Z,19.42
2022-08-20T08:38:02.972Z,19.45
2022-08-20T08:40:32.072Z,19.34
2022-08-20T08:43:02.908Z,19.38
2022-08-20T08:45:45.669Z,19.23
2022-08-20T08:48:18.519Z,19.35
2022-08-20T08:50:53.890Z,19.26
2022-08-20T08:53:26.986Z,19.30
2022-08-20T08:55:55.324Z,19.44
2022-08-20T08:58:23.417Z,19.27
2022-08-20T09:00:56.367Z,19.45
2022-08-20T09:03:29.507Z,19.51
2022-08-20T09:06:06.437Z,19.63
2022-08-20T09:08:38.358Z,19.69
2022-08-20T09:11:08.737Z,19.64
2022-08-20T09:13:36.881Z,19.53
2022-08-20T09:16:05.418Z,19.66
2022-08-20T09:18:33.797Z,19.48
2022-08-20T09:21:03.199Z,19.70
2022-08-20T09:23:31.348Z,19.67
2022-08-20T09:25:59.498Z,19.65
2022-08-20T09:28:32.201Z,19.66
2022-08-20T09:31:03.544Z,19.86
2022-08-20T09:33:32.632Z,19.97
2022-08-20T09:36:02.067Z,20.03
2022-08-20T09:38:30.208Z,20.07
2022-08-20T09:40:58.247Z,20.15
2022-08-20T09:43:26.357Z,19.89
2022-08-20T09:45:54.396Z,20.10
2022-08-20T09:48:32.114Z,20.08
2022-08-20T09:51:00.478Z,20.04
2022-08-20T09:53:31.229Z,19.99
2022-08-20T09:56:00.330Z,20.13
2022-08-20T09:58:35.751Z,20.19
2022-08-20T10:01:14.101Z,20.18
2022-08-20T10:03:42.820Z,20.12
2022-08-20T10:06:11.430Z,20.33
2022-08-20T10:08:40.887Z,20.18
2022-08-20T10:11:08.918Z,20.39
2022-08-20T10:13:36.948Z,20.59
2022-08-20T10:16:05.438Z,20.72
2022-08-20T10:18:33.502Z,20.72
2022-08-20T10:21:01.532Z,20.68
2022-08-20T10:23:29.577Z,20.73
2022-08-20T10:25:59.047Z,20.71
2022-08-20T10:28:27.058Z,20.53
2022-08-20T10:30:55.077Z,20.34
2022-08-20T10:33:23.148Z,20.29
2022-08-20T10:35:51.188Z,20.37
2022-08-20T10:38:22.937Z,20.24
2022-08-20T10:40:52.412Z,20.21
2022-08-20T10:43:22.202Z,20.30
2022-08-20T10:45:50.237Z,20.04
2022-08-20T10:48:21.375Z,19.88
2022-08-20T10:50:49.818Z,19.98
2022-08-20T10:53:18.178Z,19.90
2022-08-20T10:55:46.417Z,19.74
2022-08-20T10:58:14.469Z,19.80
2022-08-20T11:00:45.797Z,19.89
2022-08-20T11:03:13.901Z,19.94
2022-08-20T11:05:41.955Z,19.99
2022-08-20T11:08:10.078Z,20.05
2022-08-20T11:10:39.038Z,20.06
2022-08-20T11:13:08.678Z,19.94
2022-08-20T11:15:39.717Z,19.87
2022-08-20T11:18:09.988Z,20.07
2022-08-20T11:20:38.489Z,20.25
2022-08-20T11:23:06.667Z,20.21
2022-08-20T11:25:34.750Z,20.21
2022-08-20T11:28:03.663Z,20.36
2022-08-20T11:30:33.317Z,20.22
2022-08-20T11:33:02.177Z,20.39
2022-08-20T11:35:50.140Z,20.41
2022-08-20T11:38:19.111Z,20.45
2022-08-20T11:40:47.560Z,20.47
2022-08-20T11:43:17.019Z,20.53
2022-08-20T11:45:46.838Z,20.59
2022-08-20T11:48:14.937Z,20.66
2022-08-20T11:50:44.447Z,20.66
2022-08-20T11:53:12.508Z,20.62
2022-08-20T11:55:41.496Z,20.64
2022-08-20T11:58:09.510Z,20.62
2022-08-20T12:00:37.667Z,20.51
2022-08-20T12:03:08.840Z,20.70
2022-08-20T12:05:38.148Z,20.76
2022-08-20T12:08:08.560Z,20.68
2022-08-20T12:10:37.307Z,20.80
2022-08-20T12:13:05.578Z,20.78
2022-08-20T12:15:33.996Z,20.78
2022-08-20T12:18:03.608Z,20.57
2022-08-20T12:20:31.697Z,20.64
2022-08-20T12:23:00.076Z,20.62
2022-08-20T12:25:29.587Z,20.85
2022-08-20T12:27:57.672Z,20.85
2022-08-20T12:30:25.958Z,21.10
2022-08-20T12:32:53.975Z,21.03
2022-08-20T12:35:31.138Z,20.90
2022-08-20T12:37:59.940Z,20.91
2022-08-20T12:40:30.668Z,20.78
2022-08-20T12:43:00.409Z,20.96
2022-08-20T12:45:28.527Z,20.87
2022-08-20T12:48:02.708Z,20.63
2022-08-20T12:50:35.039Z,20.89
2022-08-20T12:53:05.027Z,20.87
2022-08-20T12:55:34.937Z,21.00
2022-08-20T12:58:04.391Z,21.35
2022-08-20T13:00:34.516Z,21.46
2022-08-20T13:03:04.583Z,21.32
2022-08-20T13:05:33.628Z,21.59
2022-08-20T13:08:02.101Z,21.63
2022-08-20T13:10:33.087Z,21.53
2022-08-20T13:13:03.133Z,21.67
2022-08-20T13:15:31.535Z,21.74
2022-08-20T13:18:01.149Z,21.79
2022-08-20T13:20:34.112Z,21.92
2022-08-20T13:23:03.537Z,21.82
2022-08-20T13:25:31.749Z,21.73
2022-08-20T13:28:01.457Z,21.53
2022-08-20T13:30:31.500Z,21.64
2022-08-20T13:32:59.569Z,21.68
2022-08-20T13:35:28.228Z,21.66
2022-08-20T13:37:56.251Z,21.79
2022-08-20T13:40:24.521Z,21.94
2022-08-20T13:42:52.651Z,21.99
2022-08-20T13:45:20.849Z,22.25
2022-08-20T13:47:53.644Z,22.17
2022-08-20T13:50:26.790Z,22.35
2022-08-20T13:52:56.292Z,22.50
2022-08-20T13:55:25.828Z,22.54
2022-08-20T13:57:54.766Z,22.53
2022-08-20T14:00:31.423Z,22.61
2022-08-20T14:03:02.236Z,22.47
2022-08-20T14:05:30.571Z,22.37
2022-08-20T14:08:06.416Z,22.45
2022-08-20T14:10:34.548Z,22.51
2022-08-20T14:13:05.847Z,22.25
2022-08-20T14:15:34.111Z,21.98
2022-08-20T14:18:03.989Z,21.92
2022-08-20T14:20:34.367Z,21.71
2022-08-20T14:23:03.107Z,21.54
2022-08-20T14:25:31.996Z,21.48
2022-08-20T14:28:02.066Z,21.48
2022-08-20T14:30:31.739Z,21.45
2022-08-20T14:32:59.850Z,21.65
2022-08-20T14:35:29.437Z,21.80
2022-08-20T14:37:59.065Z,22.18
2022-08-20T14:40:28.939Z,22.54
2022-08-20T14:42:57.479Z,22.74
2022-08-20T14:45:26.067Z,22.82
2022-08-20T14:47:55.478Z,22.56
2022-08-20T14:50:25.629Z,22.57
2022-08-20T14:52:56.058Z,22.59
2022-08-20T14:55:26.760Z,22.35
2022-08-20T14:57:55.061Z,22.12
2022-08-20T15:00:26.468Z,22.12
2022-08-20T15:02:54.690Z,22.18
2022-08-20T15:05:22.826Z,21.97
2022-08-20T15:07:54.415Z,21.84
2022-08-20T15:10:25.054Z,21.93
2022-08-20T15:12:53.220Z,21.72
2022-08-20T15:15:22.009Z,21.65
2022-08-20T15:17:52.860Z,21.47
2022-08-20T15:20:23.220Z,21.12
2022-08-20T15:22:52.300Z,20.79
2022-08-20T15:27:51.999Z,20.85
2022-08-20T15:30:22.655Z,20.62
2022-08-20T15:32:54.828Z,20.53
2022-08-20T15:35:23.628Z,20.37
2022-08-20T15:37:54.614Z,20.43
2022-08-20T15:40:28.218Z,20.38
2022-08-20T15:42:57.172Z,20.34
2022-08-20T15:45:25.431Z,20.15
2022-08-20T15:47:56.771Z,20.12
2022-08-20T15:50:35.551Z,19.89
2022-08-20T15:53:12.000Z,19.91
2022-08-20T15:55:45.001Z,19.83
2022-08-20T15:58:18.600Z,19.78
2022-08-20T16:00:53.035Z,19.74
2022-08-20T16:03:47.356Z,19.64
2022-08-20T16:06:18.943Z,19.66
2022-08-20T16:09:07.960Z,19.67
2022-08-20T16:11:46.640Z,19.72
2022-08-20T16:14:17.229Z,19.59
2022-08-20T16:16:46.754Z,19.59
2022-08-20T16:19:19.138Z,19.56
2022-08-20T16:21:47.814Z,19.41
2022-08-20T16:24:16.694Z,19.44
2022-08-20T16:26:59.675Z,19.38
2022-08-20T16:29:34.603Z,19.40
2022-08-20T16:32:07.684Z,19.32
2022-08-20T16:34:40.213Z,19.17
2022-08-20T16:37:20.204Z,19.18
2022-08-20T16:39:56.545Z,19.30
2022-08-20T16:42:27.544Z,19.34
2022-08-20T16:44:56.525Z,19.42
2022-08-20T16:47:28.872Z,19.50
2022-08-20T16:50:02.064Z,19.33
2022-08-20T16:52:30.283Z,19.22
2022-08-20T16:54:58.623Z,19.41
2022-08-20T16:57:29.473Z,19.34
2022-08-20T17:00:00.197Z,19.26
2022-08-20T17:02:28.385Z,19.40
2022-08-20T17:04:59.173Z,19.29
2022-08-20T17:07:33.506Z,19.32
2022-08-20T17:10:12.663Z,19.37
2022-08-20T17:12:42.223Z,19.16
2022-08-20T17:15:20.454Z,19.24
2022-08-20T17:17:48.664Z,19.29
2022-08-20T17:20:19.926Z,19.29
2022-08-20T17:22:52.064Z,19.06
2022-08-20T17:25:23.183Z,19.16
2022-08-20T17:27:52.767Z,19.23
2022-08-20T17:30:25.063Z,19.25
2022-08-20T17:32:58.662Z,19.16
2022-08-20T17:35:33.933Z,19.13
2022-08-20T17:38:03.683Z,19.01
2022-08-20T17:40:36.211Z,18.96
2022-08-20T17:43:11.826Z,18.86
2022-08-20T17:45:43.785Z,18.80
2022-08-20T17:48:15.764Z,18.56
2022-08-20T17:50:45.164Z,18.57
2022-08-20T17:53:23.341Z,18.48
2022-08-20T17:55:54.846Z,18.37
2022-08-20T17:58:36.805Z,18.39
2022-08-20T18:01:09.072Z,18.42
2022-08-20T18:03:41.412Z,18.43
2022-08-20T18:06:13.544Z,18.32
2022-08-20T18:08:51.261Z,18.28
2022-08-20T18:11:25.244Z,18.27
2022-08-20T18:14:19.915Z,18.12
2022-08-20T18:17:03.583Z,18.01
2022-08-20T18:19:49.834Z,17.96
2022-08-20T18:22:20.293Z,18.03
2022-08-20T18:24:54.012Z,18.01
2022-08-20T18:27:25.502Z,17.88
2022-08-20T18:29:58.003Z,17.93
2022-08-20T18:32:30.333Z,17.65
2022-08-20T18:35:10.460Z,17.63
2022-08-20T18:37:38.682Z,17.47
2022-08-20T18:40:12.288Z,17.50
2022-08-20T18:42:40.491Z,17.60
2022-08-20T18:45:10.810Z,17.42
2022-08-20T18:47:45.268Z,17.42
2022-08-20T18:50:21.923Z,17.41
2022-08-20T18:52:51.771Z,17.23
2022-08-20T18:55:31.573Z,17.48
2022-08-20T18:58:02.323Z,17.50
2022-08-20T19:00:38.833Z,17.49
2022-08-20T19:03:15.973Z,17.62
2022-08-20T19:06:04.186Z,17.62
2022-08-20T19:08:42.960Z,17.54
2022-08-20T19:11:35.304Z,17.42
2022-08-20T19:14:27.268Z,17.43
2022-08-20T19:17:01.506Z,17.43
2022-08-20T19:19:32.819Z,17.44
2022-08-20T19:22:02.049Z,17.42
2022-08-20T19:24:31.957Z,17.45
2022-08-20T19:27:02.776Z,17.43
2022-08-20T19:29:32.906Z,17.37
2022-08-20T19:32:04.497Z,17.30
2022-08-20T19:34:32.647Z,17.33
2022-08-20T19:37:09.099Z,17.25
2022-08-20T19:39:53.330Z,17.27
2022-08-20T19:42:24.527Z,17.15
2022-08-20T19:44:57.246Z,17.16
2022-08-20T19:47:32.257Z,17.16
2022-08-20T19:50:13.377Z,17.11
2022-08-20T19:52:48.407Z,17.16
2022-08-20T19:55:22.897Z,17.19
2022-08-20T19:57:52.776Z,17.13
2022-08-20T20:00:25.598Z,17.17
2022-08-20T20:02:55.037Z,17.17
2022-08-20T20:05:23.957Z,17.20
2022-08-20T20:07:54.967Z,17.23
2022-08-20T20:10:32.163Z,17.18
2022-08-20T20:13:08.175Z,17.14
2022-08-20T20:15:36.667Z,17.18
2022-08-20T20:18:06.245Z,17.26
2022-08-20T20:20:38.627Z,17.29
2022-08-20T20:23:26.913Z,17.20
2022-08-20T20:25:59.407Z,17.27
2022-08-20T20:28:29.268Z,17.22
2022-08-20T20:31:09.087Z,17.28
2022-08-20T20:33:44.119Z,17.19
2022-08-20T20:36:15.988Z,17.12
2022-08-20T20:38:54.576Z,17.02
2022-08-20T20:41:25.159Z,17.03
2022-08-20T20:44:01.031Z,16.94
2022-08-20T20:46:30.147Z,16.93
2022-08-20T20:49:02.313Z,17.01
2022-08-20T20:51:32.619Z,16.98
2022-08-20T20:54:03.244Z,16.91
2022-08-20T20:56:34.621Z,16.98
2022-08-20T20:59:06.583Z,16.95
2022-08-20T21:01:45.758Z,16.95
2022-08-20T21:04:20.697Z,16.94
2022-08-20T21:06:49.430Z,16.90
2022-08-20T21:09:18.794Z,16.92
2022-08-20T21:11:46.948Z,16.87
2022-08-20T21:14:15.347Z,16.75
2022-08-20T21:16:43.947Z,16.79
2022-08-20T21:19:12.855Z,16.87
2022-08-20T21:21:43.007Z,16.92
2022-08-20T21:24:11.147Z,16.70
2022-08-20T21:26:39.597Z,16.62
2022-08-20T21:29:09.318Z,16.62
2022-08-20T21:31:43.731Z,16.61
2022-08-20T21:34:12.467Z,16.63
2022-08-20T21:36:40.647Z,16.68
2022-08-20T21:39:10.612Z,16.64
2022-08-20T21:41:39.327Z,16.62
2022-08-20T21:44:13.827Z,16.63
2022-08-20T21:46:43.487Z,16.55
2022-08-20T21:49:11.577Z,16.64
2022-08-20T21:51:39.607Z,16.60
2022-08-20T21:54:07.647Z,16.67
2022-08-20T21:56:37.717Z,16.68
2022-08-20T21:59:08.367Z,16.66
2022-08-20T22:01:36.821Z,16.72
2022-08-20T22:04:06.770Z,16.61
2022-08-20T22:06:34.948Z,16.59
2022-08-20T22:09:03.056Z,16.59
2022-08-20T22:11:31.214Z,16.45
2022-08-20T22:14:00.817Z,16.38
2022-08-20T22:16:29.430Z,16.40
2022-08-20T22:18:57.458Z,16.43
2022-08-20T22:21:27.297Z,16.49
2022-08-20T22:23:56.718Z,16.56
2022-08-20T22:26:27.184Z,16.53
2022-08-20T22:28:55.520Z,16.59
2022-08-20T22:31:27.664Z,16.56
2022-08-20T22:33:55.945Z,16.41
2022-08-20T22:36:24.955Z,16.44
2022-08-20T22:38:54.603Z,16.45
2022-08-20T22:41:23.527Z,16.21
2022-08-20T22:43:56.306Z,16.31
2022-08-20T22:46:28.269Z,16.32
2022-08-20T22:48:56.837Z,16.34
2022-08-20T22:51:30.256Z,16.29
2022-08-20T22:53:58.645Z,16.32
2022-08-20T22:56:26.826Z,16.28
2022-08-20T22:58:59.647Z,16.22
2022-08-20T23:01:30.017Z,16.16
2022-08-20T23:04:07.396Z,16.19
2022-08-20T23:06:35.447Z,16.23
2022-08-20T23:09:03.476Z,16.17
2022-08-20T23:11:32.206Z,16.11
2022-08-20T23:14:00.236Z,16.08
2022-08-20T23:16:29.681Z,16.09
2022-08-20T23:18:57.677Z,16.08
2022-08-20T23:21:26.118Z,16.06
2022-08-20T23:23:54.216Z,16.08
2022-08-20T23:26:31.986Z,16.06
2022-08-20T23:29:00.776Z,15.99
2022-08-20T23:31:30.267Z,15.88
2022-08-20T23:33:58.346Z,16.00
2022-08-20T23:36:26.705Z,16.03
2022-08-20T23:38:55.066Z,16.07
2022-08-20T23:41:24.644Z,16.07
2022-08-20T23:43:52.796Z,16.03
2022-08-20T23:46:22.325Z,15.98
2022-08-20T23:48:53.095Z,15.95
2022-08-20T23:51:21.537Z,15.89
2022-08-20T23:53:49.586Z,15.95
2022-08-20T23:56:18.206Z,16.00
2022-08-20T23:58:46.407Z,16.08
